• Join FlightAware (Why Join?)
  • Login
  • US Flag 
07:26AM EDT


 

Airport Tracker/Info


-or-


 

Live Flight TrackerFlight Track Log ✈ FDX1347 ✈ 09-May-2013 ✈ KALB - KMEM

Flight Track Log - Related Links

Times and Time Zones

All times are in EDT time to prevent confusion due to time zone crossing. See the FDX1347 flight status page for this flight to view local times or setup timezone preferences in your user account.

Time Position Orientation Groundspeed Altitude Reporting Facility
EDT Latitude Longitude Course Direction KTS MPH feet Rate Location/Type
09:55PM 42.7278 -73.8081 224° Southwest 155 178 1,500  Level Boston Center
09:56PM 42.6939 -73.8525 224° Southwest 215 247 3,600 2,160 Climbing Boston Center
09:57PM 42.7072 -73.9489 281° West 243 280 6,300 2,880 Climbing Boston Center
09:58PM 42.7183 -74.0481 279° West 261 300 9,700 2,520 Climbing Boston Center
09:59PM 42.7231 -74.1472 274° West 261 300 11,400 1,500 Climbing Boston Center
10:00PM 42.6858 -74.2731 248° West 349 402 12,700 1,860 Climbing Boston Center
10:01PM 42.6856 -74.4144 270° West 368 423 15,200 1,980 Climbing Boston Center
10:07PM 42.4130 -75.2630 270° West 491 565 26,500 1,740 Climbing FlightAware
10:08PM 42.3500 -75.3800 234° Southwest 494 568 27,200 2,280 Climbing FlightAware
10:09PM 42.2910 -75.4970 236° Southwest 474 545 30,200 2,580 Climbing FlightAware
10:10PM 42.2360 -75.5980 234° Southwest 467 537 31,100 2,160 Climbing FlightAware
10:10PM 42.1820 -75.7010 235° Southwest 457 526 33,500 2,100 Climbing FlightAware
10:11PM 42.1240 -75.8110 235° Southwest 451 519 34,500 1,800 Climbing FlightAware
10:12PM 42.0720 -75.9130 236° Southwest 449 517 36,200 1,800 Climbing FlightAware
10:13PM 42.0220 -76.0270 239° Southwest 446 513 37,200 960 Climbing FlightAware
10:13PM 41.9790 -76.1300 241° Southwest 455 524 37,700 840 Climbing FlightAware
10:14PM 41.9576 -76.1821 241° Southwest 454 522 38,000 300 Climbing FlightAware ADS-B
10:14PM 41.9237 -76.2668 242° Southwest 439 505 38,000  Level FlightAware ADS-B
10:15PM 41.8916 -76.3453 241° Southwest 438 504 38,000  Level FlightAware ADS-B
10:15PM 41.8603 -76.4192 240° Southwest 440 506 38,000  Level FlightAware ADS-B
10:16PM 41.8283 -76.4962 241° Southwest 448 516 38,000  Level FlightAware ADS-B
10:16PM 41.7973 -76.5717 241° Southwest 451 519 38,000  Level FlightAware ADS-B
10:17PM 41.7740 -76.6280 241° Southwest 452 520 38,000  Level FlightAware
10:17PM 41.7620 -76.6548 239° Southwest 455 524 38,000  Level FlightAware ADS-B
10:17PM 41.7306 -76.7293 241° Southwest 461 531 38,000  Level FlightAware ADS-B
10:18PM 41.6949 -76.8142 241° Southwest 465 535 38,000  Level FlightAware ADS-B
10:18PM 41.6577 -76.9020 240° Southwest 468 539 38,000  Level FlightAware ADS-B
10:19PM 41.6237 -76.9825 241° Southwest 469 540 38,000  Level FlightAware ADS-B
10:20PM 41.5853 -77.0730 240° Southwest 469 540 38,000  Level FlightAware ADS-B
10:20PM 41.5470 -77.1630 240° Southwest 463 533 38,000  Level FlightAware
10:21PM 41.5135 -77.2397 240° Southwest 461 531 38,000  Level FlightAware ADS-B
10:21PM 41.4787 -77.3233 241° Southwest 460 529 38,000  Level FlightAware ADS-B
10:22PM 41.4160 -77.4670 240° Southwest 455 524 38,000  Level FlightAware
10:23PM 41.3750 -77.5640 241° Southwest 452 520 38,000  Level FlightAware
10:24PM 41.3290 -77.6700 240° Southwest 448 516 38,000  Level FlightAware
10:24PM 41.2880 -77.7620 239° Southwest 443 510 38,000  Level FlightAware
10:25PM 41.2450 -77.8610 240° Southwest 440 506 38,000  Level FlightAware
10:26PM 41.2020 -77.9580 240° Southwest 438 504 38,000  Level FlightAware
10:27PM 41.1550 -78.0670 240° Southwest 435 501 38,000  Level FlightAware
10:27PM 41.1160 -78.1540 239° Southwest 432 497 38,000  Level FlightAware
10:28PM 41.0750 -78.2480 240° Southwest 434 499 38,000  Level FlightAware
10:29PM 41.0300 -78.3490 239° Southwest 437 503 38,000  Level FlightAware
10:29PM 40.9910 -78.4380 240° Southwest 440 506 38,000  Level FlightAware
10:30PM 40.9440 -78.5420 239° Southwest 439 505 38,000  Level FlightAware
10:31PM 40.8970 -78.6480 240° Southwest 438 504 38,000  Level FlightAware
10:31PM 40.8560 -78.7380 239° Southwest 440 506 38,000  Level FlightAware
10:32PM 40.8090 -78.8440 240° Southwest 442 509 38,000  Level FlightAware
10:33PM 40.7670 -78.9370 239° Southwest 442 509 38,000  Level FlightAware
10:34PM 40.7200 -79.0390 239° Southwest 442 509 38,000  Level FlightAware
10:34PM 40.6790 -79.1290 239° Southwest 444 511 38,000  Level FlightAware
10:35PM 40.6380 -79.2190 239° Southwest 443 510 38,000  Level FlightAware
10:36PM 40.5930 -79.3180 239° Southwest 441 507 38,000  Level FlightAware
10:36PM 40.5480 -79.4150 239° Southwest 442 509 38,000  Level FlightAware
10:37PM 40.4990 -79.5200 238° Southwest 441 507 38,000  Level FlightAware
10:38PM 40.4570 -79.6120 239° Southwest 441 507 38,000  Level FlightAware
10:38PM 40.4110 -79.7130 239° Southwest 441 507 38,000  Level FlightAware
10:39PM 40.3620 -79.8180 239° Southwest 441 507 38,000  Level FlightAware
10:40PM 40.3210 -79.9040 238° Southwest 442 509 38,000  Level FlightAware
10:41PM 40.2770 -80.0000 239° Southwest 444 511 38,000  Level FlightAware
10:41PM 40.2300 -80.1010 239° Southwest 444 511 38,000  Level FlightAware
10:42PM 40.1860 -80.1930 238° Southwest 444 511 38,000  Level FlightAware
10:43PM 40.1460 -80.2770 238° Southwest 445 512 38,000  Level FlightAware
10:43PM 40.0940 -80.3870 238° Southwest 445 512 38,000  Level FlightAware
10:44PM 40.0510 -80.4780 238° Southwest 443 510 38,000  Level FlightAware
10:45PM 40.0040 -80.5770 238° Southwest 430 495 38,000  Level FlightAware
10:45PM 39.9610 -80.6660 238° Southwest 425 489 38,000  Level FlightAware
10:46PM 39.9140 -80.7640 238° Southwest 422 486 38,000  Level FlightAware
10:47PM 39.8720 -80.8520 238° Southwest 420 483 38,000  Level FlightAware
10:48PM 39.8260 -80.9460 238° Southwest 420 483 38,000  Level FlightAware
10:48PM 39.7850 -81.0310 238° Southwest 420 483 38,000  Level FlightAware
10:49PM 39.7450 -81.1150 238° Southwest 419 482 38,000  Level FlightAware
10:50PM 39.6970 -81.2130 238° Southwest 419 482 38,000  Level FlightAware
10:50PM 39.6550 -81.2990 238° Southwest 417 480 38,000  Level FlightAware
10:51PM 39.6160 -81.3770 237° Southwest 415 478 38,000  Level FlightAware
10:52PM 39.5690 -81.4740 238° Southwest 412 474 38,000  Level FlightAware
10:52PM 39.5280 -81.5590 238° Southwest 409 471 38,000  Level FlightAware
10:53PM 39.4830 -81.6490 237° Southwest 405 466 38,000  Level FlightAware
10:54PM 39.4450 -81.7260 237° Southwest 403 464 38,000  Level FlightAware
10:55PM 39.3970 -81.8210 237° Southwest 399 459 38,000  Level FlightAware
10:55PM 39.3570 -81.9030 238° Southwest 396 456 38,000  Level FlightAware
10:56PM 39.3200 -81.9770 237° Southwest 394 453 38,000  Level FlightAware
10:57PM 39.2750 -82.0670 237° Southwest 393 452 38,000  Level FlightAware
10:57PM 39.2330 -82.1500 237° Southwest 408 470 38,000  Level FlightAware
10:58PM 39.1900 -82.2370 237° Southwest 419 482 38,000  Level FlightAware
10:59PM 39.1430 -82.3300 237° Southwest 422 486 38,000  Level FlightAware
10:59PM 39.1000 -82.4140 237° Southwest 422 486 38,000  Level FlightAware
11:00PM 39.0550 -82.5040 237° Southwest 419 482 38,000  Level FlightAware
11:01PM 39.0190 -82.5730 236° Southwest 419 482 38,000  Level FlightAware
11:02PM 38.9620 -82.6860 237° Southwest 418 481 38,000  Level FlightAware
11:03PM 38.9040 -82.7980 236° Southwest 418 481 38,000  Level FlightAware
11:03PM 38.8620 -82.8810 237° Southwest 419 482 38,000  Level FlightAware
11:04PM 38.8180 -82.9680 237° Southwest 420 483 38,000  Level FlightAware
11:05PM 38.7740 -83.0510 236° Southwest 417 480 38,000  Level FlightAware
11:05PM 38.7320 -83.1320 236° Southwest 417 480 38,000  Level FlightAware
11:06PM 38.6960 -83.2020 237° Southwest 417 480 38,000  Level FlightAware
11:07PM 38.6590 -83.2710 236° Southwest 417 480 38,000  Level FlightAware
11:07PM 38.6130 -83.3580 236° Southwest 417 480 38,000  Level FlightAware
11:08PM 38.5760 -83.4280 236° Southwest 417 480 38,000  Level FlightAware
11:09PM 38.5400 -83.4980 237° Southwest 417 480 38,000  Level FlightAware
11:09PM 38.5030 -83.5670 236° Southwest 417 480 38,000  Level FlightAware
11:10PM 38.4660 -83.6370 236° Southwest 417 480 38,000  Level FlightAware
11:11PM 38.3680 -83.8280 237° Southwest 419 482 38,000  Level FlightAware
11:12PM 38.3210 -83.9190 237° Southwest 419 482 38,000  Level FlightAware
11:12PM 38.2850 -83.9840 235° Southwest 419 482 38,000  Level FlightAware
11:13PM 38.2280 -84.0920 236° Southwest 421 484 38,000  Level FlightAware
11:14PM 38.1940 -84.1560 236° Southwest 424 488 38,000  Level FlightAware
11:14PM 38.1600 -84.2180 235° Southwest 425 489 38,000  Level FlightAware
11:15PM 38.1060 -84.3190 236° Southwest 424 488 38,000  Level FlightAware
11:16PM 38.0640 -84.3970 236° Southwest 424 488 38,000  Level FlightAware
11:16PM 38.0130 -84.4920 236° Southwest 424 488 38,000  Level FlightAware
11:17PM 37.9690 -84.5740 236° Southwest 423 487 38,000  Level FlightAware
11:18PM 37.9180 -84.6680 236° Southwest 422 486 38,000  Level FlightAware
11:18PM 37.8730 -84.7520 236° Southwest 422 486 38,000  Level FlightAware
11:19PM 37.8290 -84.8330 235° Southwest 419 482 38,000  Level FlightAware
11:20PM 37.7870 -84.9100 235° Southwest 419 482 38,000  Level FlightAware
11:20PM 37.7370 -85.0000 235° Southwest 416 479 38,000  Level FlightAware
11:21PM 37.7213 -85.0278 234° Southwest 419 482 38,000  Level FlightAware ADS-B
11:21PM 37.6860 -85.0930 236° Southwest 414 476 38,000  Level FlightAware
11:21PM 37.6825 -85.0995 236° Southwest 414 476 38,000  Level FlightAware ADS-B
11:22PM 37.6485 -85.1608 235° Southwest 413 475 38,000  Level FlightAware ADS-B
11:22PM 37.6149 -85.2221 235° Southwest 412 474 38,000  Level FlightAware ADS-B
11:23PM 37.5804 -85.2849 235° Southwest 410 472 38,000  Level FlightAware ADS-B
11:23PM 37.5472 -85.3436 235° Southwest 408 470 38,000  Level FlightAware ADS-B
11:24PM 37.5127 -85.4060 235° Southwest 407 468 38,000  Level FlightAware ADS-B
11:24PM 37.4773 -85.4699 235° Southwest 406 467 38,000  Level FlightAware ADS-B
11:25PM 37.4150 -85.5820 235° Southwest 407 468 38,000  Level FlightAware
11:26PM 37.3710 -85.6600 235° Southwest 409 471 38,000  Level FlightAware
11:27PM 37.3280 -85.7370 235° Southwest 405 466 38,000  Level FlightAware
11:28PM 37.2660 -85.8470 235° Southwest 400 460 38,000  Level FlightAware
11:28PM 37.2250 -85.9200 235° Southwest 398 458 38,000  Level FlightAware
11:29PM 37.1750 -86.0090 235° Southwest 395 455 38,000  Level FlightAware
11:30PM 37.1310 -86.0870 235° Southwest 394 453 38,000  Level FlightAware
11:30PM 37.0950 -86.1500 234° Southwest 393 452 38,000  Level FlightAware
11:31PM 37.0530 -86.2240 235° Southwest 393 452 38,000  Level FlightAware
11:31PM 37.0238 -86.2763 235° Southwest 392 451 38,000  Level FlightAware ADS-B
11:32PM 36.9922 -86.3318 235° Southwest 392 451 38,000  Level FlightAware ADS-B
11:32PM 36.9606 -86.3872 234° Southwest 393 452 38,000  Level FlightAware ADS-B
11:33PM 36.9340 -86.4339 235° Southwest 392 451 38,000  Level FlightAware ADS-B
11:33PM 36.9162 -86.4703 239° Southwest 390 449 38,000  Level FlightAware ADS-B
11:34PM 36.8901 -86.5293 241° Southwest 387 445 38,000  Level FlightAware ADS-B
11:34PM 36.8639 -86.5900 242° Southwest 387 445 38,000  Level FlightAware ADS-B
11:35PM 36.8382 -86.6490 241° Southwest 388 447 38,000  Level FlightAware ADS-B
11:35PM 36.8089 -86.7154 241° Southwest 388 447 38,000  Level FlightAware ADS-B
11:36PM 36.7680 -86.8070 241° Southwest 387 445 38,000 -120 Level FlightAware
11:37PM 36.7330 -86.8870 241° Southwest 387 445 37,900 -180 Descending FlightAware
11:37PM 36.7250 -86.9048 241° Southwest 387 445 37,900 -840 Level FlightAware ADS-B
11:38PM 36.6930 -86.9750 240° Southwest 386 444 37,300 -1,080 Descending FlightAware
11:38PM 36.6600 -87.0510 242° Southwest 393 452 36,500 -960 Descending FlightAware
11:39PM 36.6170 -87.1470 241° Southwest 415 478 36,000 -420 Descending FlightAware
11:40PM 36.5860 -87.2160 241° Southwest 417 480 36,000  Level FlightAware
11:40PM 36.5420 -87.3140 241° Southwest 409 471 36,000  Level FlightAware
11:41PM 36.5020 -87.4030 241° Southwest 403 464 36,000 -300 Level FlightAware
11:42PM 36.4650 -87.4840 240° Southwest 403 464 35,600 -540 Descending FlightAware
11:42PM 36.4290 -87.5650 241° Southwest 405 466 35,300 -600 Descending FlightAware
11:43PM 36.3860 -87.6580 240° Southwest 409 471 34,800 -1,020 Descending FlightAware
11:44PM 36.3490 -87.7410 241° Southwest 413 475 33,900 -1,080 Descending FlightAware
11:45PM 36.3070 -87.8300 240° Southwest 420 483 33,300 -900 Descending FlightAware
11:45PM 36.2680 -87.9170 241° Southwest 422 486 32,700 -840 Descending FlightAware
11:46PM 36.2230 -88.0140 240° Southwest 423 487 32,100 -420 Descending FlightAware
11:47PM 36.1820 -88.1010 240° Southwest 423 487 32,100  Level FlightAware
11:47PM 36.1490 -88.1720 240° Southwest 423 487 32,100  Level FlightAware
11:48PM 36.1160 -88.2440 240° Southwest 423 487 32,100  Level FlightAware
11:49PM 36.0740 -88.3330 240° Southwest 423 487 32,100  Level FlightAware
11:50PM 36.0410 -88.4040 240° Southwest 423 487 32,100  Level FlightAware
11:50PM 36.0080 -88.4750 240° Southwest 423 487 32,100  Level FlightAware
11:51PM 35.9740 -88.5470 240° Southwest 423 487 32,100  Level FlightAware
11:52PM 35.9410 -88.6180 240° Southwest 423 487 32,100  Level FlightAware
11:52PM 35.8990 -88.7070 240° Southwest 423 487 32,100  Level FlightAware
11:53PM 35.8660 -88.7780 240° Southwest 423 487 32,100  Level FlightAware
11:54PM 35.8330 -88.8490 240° Southwest 423 487 32,100  Level FlightAware
11:54PM 35.8000 -88.9200 240° Southwest 423 487 32,100  Level FlightAware
11:55PM 35.7660 -88.9910 239° Southwest 423 487 32,100  Level FlightAware
11:56PM 35.7250 -89.0800 240° Southwest 423 487 32,100 -8,580 Level FlightAware
11:57PM 35.5122 -89.3547 240° Southwest 374 430 15,700 -8,820 Descending Memphis Center
11:58PM 35.4483 -89.4369 226° Southwest 348 400 13,800 -1,860 Descending Memphis Center
11:59PM 35.3842 -89.5167 225° Southwest 337 388 12,000 -1,320 Descending Memphis Center
12:00AM 35.3242 -89.5961 227° Southwest 327 376 11,200 -780 Descending Memphis Center
12:01AM 35.2703 -89.6628 225° Southwest 303 349 10,500 -540 Descending Memphis Center
12:02AM 35.2164 -89.7319 226° Southwest 284 327 10,200 -360 Descending Memphis Center
12:03AM 35.1689 -89.7931 226° Southwest 266 306 9,800 -600 Descending Memphis Center
12:04AM 35.1231 -89.8494 225° Southwest 239 275 9,100 -660 Descending Memphis Center
12:05AM 35.0647 -89.8675 194° South 217 250 8,500 -1,200 Descending Memphis Center
12:06AM 34.9981 -89.8653 178° South 227 261 6,700 -2,340 Descending Memphis Center
12:07AM 34.9269 -89.8658 180° South 250 288 3,900 -2,160 Descending Memphis Center
12:08AM 34.8625 -89.8661 180° South 250 288 2,400 -900 Descending Memphis Center
12:09AM 34.8500 -89.9092 251° West 176 203 2,100 -180 Descending Memphis Center
12:11AM 34.9167 -89.9500 333° Northwest 185 213 2,000 -240 Descending KMEM
12:12AM 34.9667 -89.9667 345° North 175 201 1,500 -660 Descending KMEM
12:13AM 35.0000 -89.9667 360° North 141 162 800 -780 Descending KMEM
12:15AM 35.0333 -89.9667 345° North  Level FlightAware Approximate
12:22AM 35.0424 -89.9767 345° North  Level Estimated
12:23AM 35.0424 -89.9767 345° North  Level Estimated
12:24AM 35.0424 -89.9767 345° North  Level Estimated
12:25AM 35.0424 -89.9767 345° North  Level Estimated
12:26AM 35.0424 -89.9767 345° North  Level Estimated
12:27AM 35.0424 -89.9767 345° North  Level Estimated
12:28AM 35.0424 -89.9767 345° North  Level Estimated
12:29AM 35.0424 -89.9767 345° North  Level Estimated